Main page
METAR-TAF:

METAR-TAF

Airports :

Capo Mele

Andora, Italy

latitude: 43-57N, longitude: 008-10E, elevation: 220 m

Current weather observation

The report was made 21 hours and 34 minutes ago, at 19:55 UTC
Calm wind
Temperature 24°C
Humidity 65%
Pressure 1019 hPa
Visibility 10 km or more
no clouds below 1500 m and no cumulonimbus

METAR: LIMU 191955Z 00000KT CAVOK 24/17 Q1019 RMK SKC QUK / QUL / VIS MAR 20 KM VIS MIN 9999

Time: 19:29 (17:29 UTC)


TAF: missing

Weather observations and forecasts of more than 4000 airports (METAR and TAF reports).

The available stations are represented by yellow and red dots on the map.

Hover mouse over dot to see the name of the station.

Then click to see weather observations and forecasts.

To change the map : click on the green buttons with a black cross to zoom in, on the green button with a dash to zoom out, or on the green arrows for adjacent maps.


METAR-TAF: